SPTN/TCQ METAR and TAF weather

Enter ICAO airport designator
Station Type Date Time Source
SPTN METAR 2019/08/23 16:00 UTC NOAA

SPTN 231600Z 20004KT 110V270 CAVOK 18/10 Q1017 RMK PP000


Station Type Date Time Source
SPTN Decoded METAR 2019/08/23 16:00 UTC NOAA

Station name not available
Aug 23, 2019 - 12:00 PM EDT / 2019.08.23 1600 UTC
Wind: from the SSW (200 degrees) at 5 MPH (4 KT) (direction variable):0
Visibility: greater than 7 mile(s):0
Temperature: 64 F (18 C)
Dew Point: 50 F (10 C)
Relative Humidity: 59%
Pressure (altimeter): 30.03 in. Hg (1017 hPa)
ob: SPTN 231600Z 20004KT 110V270 CAVOK 18/10 Q1017 RMK PP000
cycle: 16

Station Type Date Time Source
SPTN TAF 2019/08/23 12:33 UTC NOAA

TAF TAF SPTN 231100Z 2312/2412 20003KT 7000 SCT013 OVC020 TX19/2319Z TN11/2410Z
FM231600 22008KT CAVOK
FM240000 240006KT 9999 SCT016 OVC022

Example: see airport list